Time;durP1;ratioP1;P1;durP2;ratioP2;P2;SDS_P1;SDS_P2;PMS_P1;PMS_P2;Temp;Humidity;BMP_temperature;BMP_pressure;BME280_temperature;BME280_humidity;BME280_pressure;Samples;Min_cycle;Max_cycle;Signal;HPM_P1;HPM_P2
2022/05/23 00:01:14;;;;;;;;;;;;;;;3.26;58.47;98674.56;5024892;28;20359;-72
2022/05/23 00:03:39;;;;;;;;;;;;;;;3.22;59.03;98685.06;5025540;28;19952;-73
2022/05/23 00:06:05;;;;;;;;;;;;;;;3.22;59.06;98676.16;5024341;28;19971;-75
2022/05/23 00:08:32;;;;;;;;;;;;;;;3.21;59.46;98680.75;5020322;28;19928;-76
2022/05/23 00:10:57;;;;;;;;;;;;;;;3.22;59.06;98673.47;5041745;28;20299;-75
2022/05/23 00:13:23;;;;;;;;;;;;;;;3.22;58.38;98685.06;5025248;28;19971;-76
2022/05/23 00:15:51;;;;;;;;;;;;;;;3.18;59.05;98685.81;5016445;28;20338;-75
2022/05/23 00:18:17;;;;;;;;;;;;;;;3.15;59.24;98687.16;5005630;28;19964;-75
2022/05/23 00:20:42;;;;;;;;;;;;;;;3.17;59.03;98684.19;5003969;28;19952;-75
2022/05/23 00:23:08;;;;;;;;;;;;;;;3.18;58.86;98681.25;5004541;28;20389;-75
2022/05/23 00:25:34;;;;;;;;;;;;;;;3.18;58.72;98683.94;5007411;28;19987;-76
2022/05/23 00:28:00;;;;;;;;;;;;;;;3.18;58.57;98683.94;5041741;28;19975;-76
2022/05/23 00:30:26;;;;;;;;;;;;;;;3.19;58.37;98690.97;5009082;28;19941;-76
2022/05/23 00:35:38;;;;;;;;;;;;;;;3.16;58.57;98688.78;5025191;28;19925;-76
2022/05/23 00:38:05;;;;;;;;;;;;;;;3.16;58.41;98686.09;5023148;28;20052;-72
2022/05/23 00:40:36;;;;;;;;;;;;;;;3.15;58.54;98689.88;5023186;28;20406;-72
2022/05/23 00:43:13;;;;;;;;;;;;;;;3.14;58.49;98692.81;5020454;28;19935;-72
2022/05/23 00:45:39;;;;;;;;;;;;;;;3.15;58.76;98695.28;5023311;28;19925;-72
2022/05/23 00:48:08;;;;;;;;;;;;;;;3.11;58.83;98692.25;5003446;28;19958;-72
2022/05/23 00:50:34;;;;;;;;;;;;;;;3.09;59.06;98696.25;5007670;28;20016;-72
2022/05/23 00:53:01;;;;;;;;;;;;;;;3.02;59.38;98688.34;5008827;28;19929;-72
2022/05/23 00:55:29;;;;;;;;;;;;;;;3.04;58.90;98694.31;5009519;28;20016;-72
2022/05/23 00:57:58;;;;;;;;;;;;;;;3.08;58.94;98697.34;5022055;28;20367;-72
2022/05/23 01:00:24;;;;;;;;;;;;;;;3.09;58.74;98697.09;4991580;28;19932;-75
2022/05/23 01:02:53;;;;;;;;;;;;;;;3.10;58.88;98700.59;5024991;28;19933;-76
2022/05/23 01:05:20;;;;;;;;;;;;;;;3.11;58.61;98694.13;5006604;28;19971;-76
2022/05/23 01:07:46;;;;;;;;;;;;;;;3.07;59.09;98699.22;5008826;28;19936;-77
2022/05/23 01:10:12;;;;;;;;;;;;;;;3.08;59.02;98708.13;5009730;28;19926;-76
2022/05/23 01:12:38;;;;;;;;;;;;;;;3.06;59.70;98708.41;4993413;28;19929;-76
2022/05/23 01:15:15;;;;;;;;;;;;;;;3.05;59.76;98700.53;5006015;28;20920;-76
2022/05/23 01:17:42;;;;;;;;;;;;;;;3.05;59.34;98705.94;5018028;28;19956;-73
2022/05/23 01:20:09;;;;;;;;;;;;;;;3.03;59.30;98714.28;5013011;28;20372;-73
2022/05/23 01:22:40;;;;;;;;;;;;;;;3.04;59.34;98707.00;4988556;28;19939;-73
2022/05/23 01:25:37;;;;;;;;;;;;;;;3.02;59.24;98707.25;5020732;28;19926;-73
2022/05/23 01:28:05;;;;;;;;;;;;;;;2.98;59.31;98701.56;4990654;28;19949;-74
2022/05/23 01:30:33;;;;;;;;;;;;;;;2.97;59.32;98710.72;5006274;28;19988;-73
2022/05/23 01:33:11;;;;;;;;;;;;;;;2.96;59.56;98709.06;5028690;28;20051;-73
2022/05/23 01:35:37;;;;;;;;;;;;;;;2.94;59.65;98708.50;5011087;28;19932;-73
2022/05/23 01:38:03;;;;;;;;;;;;;;;2.95;59.24;98710.13;5020371;28;19925;-73
2022/05/23 01:40:58;;;;;;;;;;;;;;;2.93;59.32;98709.59;4995338;28;19925;-73
2022/05/23 01:43:26;;;;;;;;;;;;;;;2.95;59.31;98703.94;5006423;28;19931;-72
2022/05/23 01:46:15;;;;;;;;;;;;;;;3.00;58.88;98714.00;5006888;28;19932;-76
2022/05/23 01:48:56;;;;;;;;;;;;;;;3.06;58.46;98711.09;4990314;28;19926;-76
2022/05/23 01:51:23;;;;;;;;;;;;;;;3.12;58.41;98707.38;5024036;28;19925;-76
2022/05/23 01:53:50;;;;;;;;;;;;;;;3.16;58.21;98712.28;5039922;28;19979;-76
2022/05/23 01:56:16;;;;;;;;;;;;;;;3.17;58.06;98713.91;5022310;28;20355;-76
2022/05/23 02:01:36;;;;;;;;;;;;;;;3.18;58.31;98710.13;5012433;28;20428;-77
2022/05/23 02:04:01;;;;;;;;;;;;;;;3.13;58.71;98719.03;5014242;28;19925;-77
2022/05/23 02:06:39;;;;;;;;;;;;;;;3.10;59.33;98712.22;5031307;28;19925;-76
2022/05/23 02:09:12;;;;;;;;;;;;;;;3.11;59.04;98716.56;5028143;28;19932;-76
2022/05/23 02:11:48;;;;;;;;;;;;;;;3.15;58.54;98711.47;5041180;28;19929;-76
2022/05/23 02:14:23;;;;;;;;;;;;;;;3.20;58.32;98714.22;5015167;28;20024;-76
2022/05/23 02:16:49;;;;;;;;;;;;;;;3.21;58.63;98715.84;5022797;28;20027;-75
2022/05/23 02:19:15;;;;;;;;;;;;;;;3.22;58.91;98709.38;5009369;28;19948;-76
2022/05/23 02:21:45;;;;;;;;;;;;;;;3.28;58.81;98714.84;5009679;28;19925;-75
2022/05/23 02:24:11;;;;;;;;;;;;;;;3.34;58.84;98714.63;5004468;28;20032;-72
2022/05/23 02:26:37;;;;;;;;;;;;;;;3.43;58.47;98706.09;5005985;28;19926;-73
2022/05/23 02:29:29;;;;;;;;;;;;;;;3.52;57.89;98710.78;5008923;28;19931;-72
2022/05/23 02:31:55;;;;;;;;;;;;;;;3.61;57.59;98710.34;5021033;28;20028;-72
2022/05/23 02:34:21;;;;;;;;;;;;;;;3.69;57.60;98716.09;5005386;28;20016;-72
2022/05/23 02:36:51;;;;;;;;;;;;;;;3.76;57.50;98715.06;5005898;28;19948;-72
2022/05/23 02:39:23;;;;;;;;;;;;;;;3.86;56.89;98712.47;5022008;28;19925;-73
2022/05/23 02:41:50;;;;;;;;;;;;;;;3.96;56.34;98706.31;5020911;28;19932;-72
2022/05/23 02:44:18;;;;;;;;;;;;;;;4.06;56.29;98711.00;5006371;28;20477;-72
2022/05/23 02:46:45;;;;;;;;;;;;;;;4.12;56.49;98707.25;5007256;28;19936;-73
2022/05/23 02:49:16;;;;;;;;;;;;;;;4.21;56.23;98708.41;5004935;28;19947;-73
2022/05/23 02:51:45;;;;;;;;;;;;;;;4.27;55.35;98709.25;4988170;28;20300;-73
2022/05/23 02:54:12;;;;;;;;;;;;;;;4.34;55.26;98709.84;5005703;28;20405;-73
2022/05/23 02:56:39;;;;;;;;;;;;;;;4.45;54.35;98707.22;5006824;28;19929;-73
2022/05/23 02:59:06;;;;;;;;;;;;;;;4.51;54.10;98708.84;5004630;28;19925;-72
2022/05/23 03:01:32;;;;;;;;;;;;;;;4.57;54.08;98710.53;5020967;28;19972;-73
2022/05/23 03:04:00;;;;;;;;;;;;;;;4.64;53.35;98711.09;4997605;28;19925;-73
2022/05/23 03:06:26;;;;;;;;;;;;;;;4.73;52.97;98710.63;5038327;28;19948;-73
2022/05/23 03:08:52;;;;;;;;;;;;;;;4.79;52.78;98704.97;5039126;28;19932;-73
2022/05/23 03:11:18;;;;;;;;;;;;;;;4.88;52.32;98715.28;5022860;28;19979;-73
2022/05/23 03:13:44;;;;;;;;;;;;;;;4.94;52.17;98717.75;5025485;28;19952;-73
2022/05/23 03:16:11;;;;;;;;;;;;;;;5.01;52.11;98719.44;5019064;28;20050;-73
2022/05/23 03:18:40;;;;;;;;;;;;;;;5.08;51.63;98717.28;5005082;28;20385;-73
2022/05/23 03:21:08;;;;;;;;;;;;;;;5.14;51.63;98718.91;5004390;28;19926;-73
2022/05/23 03:29:05;;;;;;;;;;;;;;;5.31;50.07;98721.44;5005576;28;20059;-73
2022/05/23 03:31:32;;;;;;;;;;;;;;;5.35;49.98;98722.50;5021906;28;20426;-74
2022/05/23 03:33:58;;;;;;;;;;;;;;;5.35;49.44;98719.00;5009861;28;19929;-73
2022/05/23 03:36:26;;;;;;;;;;;;;;;5.36;49.32;98718.72;5007837;28;20019;-72
2022/05/23 03:38:51;;;;;;;;;;;;;;;5.37;49.51;98720.34;5022669;28;19925;-72
2022/05/23 03:41:17;;;;;;;;;;;;;;;5.27;48.97;98703.25;5023476;28;19935;-73
2022/05/23 03:43:43;;;;;;;;;;;;;;;5.42;50.19;98706.00;5040695;28;19929;-72
2022/05/23 03:46:10;;;;;;;;;;;;;;;5.43;50.41;98707.63;5019286;28;19932;-73
2022/05/23 03:48:36;;;;;;;;;;;;;;;5.46;49.97;98709.00;5002712;28;20451;-73
2022/05/23 03:51:02;;;;;;;;;;;;;;;5.49;49.63;98703.84;5003866;28;19929;-73
2022/05/23 03:53:30;;;;;;;;;;;;;;;5.53;49.52;98699.53;5004597;28;19929;-72
2022/05/23 03:56:00;;;;;;;;;;;;;;;5.58;49.08;98714.16;5021584;28;20368;-73
2022/05/23 03:58:26;;;;;;;;;;;;;;;5.63;49.21;98708.78;5020094;28;19993;-72
2022/05/23 04:01:15;;;;;;;;;;;;;;;5.69;49.01;98702.25;5005821;28;19926;-72
2022/05/23 04:03:44;;;;;;;;;;;;;;;5.73;48.90;98707.97;5013457;28;19960;-73
2022/05/23 04:06:10;;;;;;;;;;;;;;;5.79;48.74;98709.59;5041550;28;19933;-73
2022/05/23 04:08:48;;;;;;;;;;;;;;;5.90;48.30;98708.53;5040095;28;19965;-73
2022/05/23 04:11:14;;;;;;;;;;;;;;;5.92;48.21;98710.94;5004421;28;19929;-73
2022/05/23 04:13:41;;;;;;;;;;;;;;;5.95;48.31;98705.81;5012459;28;20382;-72
2022/05/23 04:16:07;;;;;;;;;;;;;;;6.02;47.91;98700.13;5002985;28;20329;-72
2022/05/23 04:18:33;;;;;;;;;;;;;;;5.90;48.84;98704.97;4986633;28;20298;-73
2022/05/23 04:21:01;;;;;;;;;;;;;;;5.69;49.59;98699.53;5016308;28;20499;-73
2022/05/23 04:23:27;;;;;;;;;;;;;;;5.48;49.46;98693.28;5018026;28;20418;-72
2022/05/23 04:25:58;;;;;;;;;;;;;;;5.31;50.06;98704.34;5007824;28;20024;-72
2022/05/23 04:28:25;;;;;;;;;;;;;;;5.20;50.85;98708.91;5006176;28;19929;-72
2022/05/23 04:30:50;;;;;;;;;;;;;;;5.23;51.08;98705.69;5008263;28;19933;-72
2022/05/23 04:36:06;;;;;;;;;;;;;;;5.52;49.81;98694.34;5015471;28;19925;-72
2022/05/23 04:38:35;;;;;;;;;;;;;;;5.65;49.96;98698.47;5016331;28;20257;-72
2022/05/23 04:41:07;;;;;;;;;;;;;;;5.70;49.96;98703.06;5025659;28;19975;-72
2022/05/23 04:43:49;;;;;;;;;;;;;;;5.67;49.47;98693.59;5040957;28;19928;-72
2022/05/23 04:46:20;;;;;;;;;;;;;;;5.72;49.10;98693.56;5039057;28;20312;-72
2022/05/23 04:51:52;;;;;;;;;;;;;;;6.09;48.46;98695.25;5027988;28;19924;-72
2022/05/23 04:54:24;;;;;;;;;;;;;;;6.39;47.70;98698.22;5029753;28;19925;-71
2022/05/23 04:56:53;;;;;;;;;;;;;;;6.64;47.48;98697.34;5042939;28;19925;-72
2022/05/23 04:59:29;;;;;;;;;;;;;;;6.93;46.08;98693.16;4670815;28;10000098;-72
2022/05/23 05:01:54;;;;;;;;;;;;;;;7.12;46.31;98685.22;5000392;28;20495;-73
2022/05/23 05:04:20;;;;;;;;;;;;;;;7.20;45.35;98689.25;5005016;28;19969;-73
2022/05/23 05:06:46;;;;;;;;;;;;;;;7.25;45.40;98694.66;5018547;28;19929;-72
2022/05/23 05:09:12;;;;;;;;;;;;;;;7.35;45.38;98688.38;5005278;28;20023;-73
2022/05/23 05:11:39;;;;;;;;;;;;;;;7.70;44.75;98694.69;5002689;28;20016;-74
2022/05/23 05:14:21;;;;;;;;;;;;;;;7.82;45.11;98690.78;5003401;28;19931;-72
2022/05/23 05:16:50;;;;;;;;;;;;;;;7.72;43.88;98680.78;5000425;28;19926;-72
2022/05/23 05:19:16;;;;;;;;;;;;;;;7.55;44.45;98687.41;5005782;28;19932;-71
2022/05/23 05:21:54;;;;;;;;;;;;;;;7.43;45.41;98687.75;5003496;28;20312;-72
2022/05/23 05:24:38;;;;;;;;;;;;;;;7.38;45.43;98671.50;5001796;28;20348;-72
2022/05/23 05:27:29;;;;;;;;;;;;;;;7.33;45.76;98674.22;5023330;28;19925;-72
2022/05/23 05:29:56;;;;;;;;;;;;;;;7.23;45.03;98664.22;5019267;28;19948;-71
2022/05/23 05:32:26;;;;;;;;;;;;;;;7.20;45.00;98664.78;5028140;28;20563;-72
2022/05/23 05:34:54;;;;;;;;;;;;;;;7.25;45.36;98678.34;5032389;28;19929;-72
2022/05/23 05:37:24;;;;;;;;;;;;;;;7.35;45.15;98664.69;5009685;28;19960;-72
2022/05/23 05:39:52;;;;;;;;;;;;;;;7.36;44.73;98665.53;5022691;28;19925;-71
2022/05/23 05:42:20;;;;;;;;;;;;;;;7.26;44.36;98660.13;5030515;28;19925;-72
2022/05/23 05:44:53;;;;;;;;;;;;;;;7.19;44.60;98653.09;5010827;28;20389;-72
2022/05/23 05:47:21;;;;;;;;;;;;;;;7.20;43.86;98660.16;5044354;28;20370;-72
2022/05/23 05:49:49;;;;;;;;;;;;;;;7.32;43.67;98648.94;5026618;28;20025;-72
2022/05/23 05:52:18;;;;;;;;;;;;;;;7.38;43.31;98652.44;4998236;28;19926;-71
2022/05/23 05:54:52;;;;;;;;;;;;;;;7.49;43.20;98656.75;5005187;28;19929;-72
2022/05/23 05:57:18;;;;;;;;;;;;;;;7.61;43.19;98650.94;5005280;28;20014;-72
2022/05/23 05:59:46;;;;;;;;;;;;;;;7.74;42.86;98644.03;5037673;28;19925;-72
2022/05/23 06:02:14;;;;;;;;;;;;;;;7.84;42.49;98654.00;5027965;28;19967;-72
2022/05/23 06:04:42;;;;;;;;;;;;;;;7.88;41.92;98652.38;5032382;28;19925;-72
2022/05/23 06:14:00;;;;;;;;;;;;;;;7.88;40.68;98644.22;4996271;28;20313;-72
2022/05/23 06:16:46;;;;;;;;;;;;;;;7.93;40.98;98636.00;5000238;28;19931;-72
2022/05/23 06:19:27;;;;;;;;;;;;;;;7.95;41.75;98635.69;5022704;28;20367;-72
2022/05/23 06:22:10;;;;;;;;;;;;;;;8.04;40.77;98644.88;5020243;28;20344;-72
2022/05/23 06:24:44;;;;;;;;;;;;;;;7.85;41.48;98642.03;5020852;28;19925;-72
2022/05/23 06:27:10;;;;;;;;;;;;;;;7.85;41.68;98636.59;5021228;28;19925;-72
2022/05/23 06:29:48;;;;;;;;;;;;;;;7.95;41.06;98630.25;5007833;28;19925;-72
2022/05/23 06:32:31;;;;;;;;;;;;;;;8.16;40.90;98635.50;4989962;28;20346;-72
2022/05/23 06:34:57;;;;;;;;;;;;;;;8.39;40.30;98628.47;5022022;28;19933;-72
2022/05/23 06:37:25;;;;;;;;;;;;;;;8.74;39.78;98625.63;4987614;28;19925;-72
2022/05/23 06:40:03;;;;;;;;;;;;;;;9.25;39.16;98610.50;5020906;28;19930;-72
2022/05/23 06:42:58;;;;;;;;;;;;;;;9.50;37.93;98603.84;4951608;28;19937;-72
2022/05/23 06:45:42;;;;;;;;;;;;;;;9.23;38.55;98607.28;5007869;28;20316;-71
2022/05/23 06:48:26;;;;;;;;;;;;;;;8.97;38.67;98615.81;5006465;28;19925;-72
2022/05/23 06:51:18;;;;;;;;;;;;;;;9.10;38.28;98625.19;4999825;28;19925;-72
2022/05/23 06:53:48;;;;;;;;;;;;;;;9.30;38.15;98615.91;5006117;28;19932;-72
2022/05/23 06:56:21;;;;;;;;;;;;;;;9.62;37.19;98600.69;5017530;28;19929;-72
2022/05/23 06:58:52;;;;;;;;;;;;;;;9.68;36.70;98606.88;5004567;28;19980;-71
2022/05/23 07:01:41;;;;;;;;;;;;;;;9.97;36.49;98594.91;4994450;28;20320;-72
2022/05/23 07:04:23;;;;;;;;;;;;;;;10.25;35.48;98600.41;5010359;28;19925;-72
2022/05/23 07:12:37;;;;;;;;;;;;;;;10.64;34.26;98593.69;5003778;28;19929;-72
2022/05/23 07:15:06;;;;;;;;;;;;;;;10.60;34.33;98603.59;4999298;28;19926;-72
2022/05/23 07:17:37;;;;;;;;;;;;;;;10.82;33.84;98598.53;5024161;28;20202;-72
2022/05/23 07:20:28;;;;;;;;;;;;;;;11.12;33.15;98609.91;5009093;28;20040;-72
2022/05/23 07:23:10;;;;;;;;;;;;;;;11.14;33.16;98602.22;5004197;28;19936;-72
2022/05/23 07:25:42;;;;;;;;;;;;;;;11.39;32.51;98606.28;5016918;28;19932;-76
2022/05/23 07:28:09;;;;;;;;;;;;;;;11.39;32.45;98586.34;5021622;28;19992;-76
2022/05/23 07:30:35;;;;;;;;;;;;;;;11.24;32.39;98593.78;5002995;28;19926;-75
2022/05/23 07:33:01;;;;;;;;;;;;;;;11.17;32.57;98575.06;5010979;28;19932;-76
2022/05/23 07:35:45;;;;;;;;;;;;;;;11.24;32.71;98587.47;5001693;28;19926;-76
2022/05/23 07:38:12;;;;;;;;;;;;;;;11.34;32.63;98579.88;5015504;28;19926;-75
2022/05/23 07:40:39;;;;;;;;;;;;;;;11.55;32.10;98579.38;5026308;28;20012;-76
2022/05/23 07:43:13;;;;;;;;;;;;;;;11.54;31.79;98571.47;5008481;28;19925;-76
2022/05/23 07:45:40;;;;;;;;;;;;;;;11.51;31.82;98575.66;5004245;28;19925;-76
2022/05/23 07:48:06;;;;;;;;;;;;;;;11.56;31.81;98570.03;5012125;28;20490;-76
2022/05/23 07:50:38;;;;;;;;;;;;;;;11.47;31.78;98574.63;5005066;28;19925;-76
2022/05/23 08:01:38;;;;;;;;;;;;;;;11.88;30.61;98570.09;5008924;28;19941;-75
2022/05/23 08:04:05;;;;;;;;;;;;;;;12.16;30.37;98557.03;5006340;28;19932;-76
2022/05/23 08:06:35;;;;;;;;;;;;;;;12.47;30.35;98553.44;5005668;28;20008;-76
2022/05/23 08:09:01;;;;;;;;;;;;;;;12.95;29.84;98559.19;5007582;28;19976;-76
2022/05/23 08:11:28;;;;;;;;;;;;;;;13.61;29.30;98544.50;5019262;28;20016;-76
2022/05/23 08:14:12;;;;;;;;;;;;;;;14.11;28.28;98546.97;5005949;28;19945;-76
2022/05/23 08:16:54;;;;;;;;;;;;;;;14.25;27.66;98554.97;4998241;28;20000;-76
2022/05/23 08:19:38;;;;;;;;;;;;;;;14.32;27.58;98544.28;5003432;28;19932;-76
2022/05/23 08:22:14;;;;;;;;;;;;;;;14.79;27.15;98550.88;5000173;28;19926;-76
2022/05/23 08:24:49;;;;;;;;;;;;;;;14.85;26.65;98544.03;5003139;28;19968;-76
2022/05/23 08:27:15;;;;;;;;;;;;;;;14.80;26.73;98545.03;5005933;28;19979;-76
2022/05/23 08:29:46;;;;;;;;;;;;;;;14.67;27.61;98535.03;4991364;28;19928;-76
2022/05/23 08:32:14;;;;;;;;;;;;;;;14.35;27.67;98523.56;5008939;28;20020;-75
2022/05/23 08:34:57;;;;;;;;;;;;;;;14.20;28.06;98530.44;5021014;28;19925;-71
2022/05/23 08:37:23;;;;;;;;;;;;;;;14.36;28.19;98523.25;4658940;28;10000240;-72
2022/05/23 08:39:49;;;;;;;;;;;;;;;14.65;27.20;98520.81;5017522;28;19926;-71
2022/05/23 08:42:22;;;;;;;;;;;;;;;14.67;27.52;98535.03;5016870;28;19925;-71
2022/05/23 08:45:10;;;;;;;;;;;;;;;14.82;27.06;98534.47;5016104;28;19926;-72
2022/05/23 08:47:41;;;;;;;;;;;;;;;15.08;26.30;98532.69;5015451;28;19935;-71
2022/05/23 08:50:12;;;;;;;;;;;;;;;15.31;25.98;98538.66;5017145;28;19925;-76
2022/05/23 08:52:45;;;;;;;;;;;;;;;15.81;25.19;98517.56;4999851;28;19926;-76
2022/05/23 08:55:36;;;;;;;;;;;;;;;16.56;24.83;98521.25;5016760;28;19933;-76
2022/05/23 08:58:21;;;;;;;;;;;;;;;17.26;24.02;98533.19;5019285;28;19925;-76
2022/05/23 09:00:51;;;;;;;;;;;;;;;17.56;23.15;98510.75;5003327;28;19926;-76
2022/05/23 09:03:20;;;;;;;;;;;;;;;17.59;22.63;98531.31;4983789;28;19984;-71
2022/05/23 09:05:51;;;;;;;;;;;;;;;16.97;23.25;98528.75;4991904;28;19931;-71
2022/05/23 09:08:21;;;;;;;;;;;;;;;16.92;23.65;98526.25;5021213;28;19926;-71
2022/05/23 09:10:55;;;;;;;;;;;;;;;17.68;23.31;98528.38;5020352;28;19925;-77
2022/05/23 09:13:22;;;;;;;;;;;;;;;17.53;22.45;98529.97;5011300;28;20009;-77
2022/05/23 09:15:52;;;;;;;;;;;;;;;17.29;23.35;98524.19;5011656;28;20464;-76
2022/05/23 09:18:20;;;;;;;;;;;;;;;17.84;22.41;98536.72;5010804;28;19925;-76
2022/05/23 09:20:49;;;;;;;;;;;;;;;17.42;22.47;98519.41;5026693;28;19971;-76
2022/05/23 09:23:20;;;;;;;;;;;;;;;17.56;22.10;98518.22;5004761;28;19940;-75
2022/05/23 09:25:50;;;;;;;;;;;;;;;17.78;22.52;98507.72;5002873;28;19931;-76
2022/05/23 09:28:22;;;;;;;;;;;;;;;17.46;23.06;98519.53;5006395;28;19932;-76
2022/05/23 09:30:55;;;;;;;;;;;;;;;16.80;24.22;98516.03;5008557;28;19967;-77
2022/05/23 09:33:23;;;;;;;;;;;;;;;17.21;24.06;98521.59;5006148;28;19932;-77
2022/05/23 09:35:51;;;;;;;;;;;;;;;17.50;22.72;98509.38;5009623;28;19925;-77
2022/05/23 09:38:21;;;;;;;;;;;;;;;17.88;22.81;98517.47;5006553;28;20021;-77
2022/05/23 09:41:01;;;;;;;;;;;;;;;18.62;21.58;98508.59;5008339;28;19971;-77
2022/05/23 09:49:05;;;;;;;;;;;;;;;18.78;21.86;98503.03;5008807;28;19925;-76
2022/05/23 09:51:31;;;;;;;;;;;;;;;18.74;21.95;98513.25;4990179;28;20015;-77
2022/05/23 09:53:59;;;;;;;;;;;;;;;18.66;21.60;98503.16;5024042;28;19947;-77
2022/05/23 09:56:30;;;;;;;;;;;;;;;18.91;21.74;98503.72;4989119;28;19937;-76
2022/05/23 09:58:57;;;;;;;;;;;;;;;18.87;21.53;98504.78;5024644;28;19971;-77
2022/05/23 10:01:27;;;;;;;;;;;;;;;18.89;21.06;98502.44;5025163;28;20396;-77
2022/05/23 10:03:53;;;;;;;;;;;;;;;19.15;21.33;98495.50;5003978;28;20470;-77
2022/05/23 10:06:32;;;;;;;;;;;;;;;19.87;20.72;98487.75;5008628;28;19925;-76
2022/05/23 10:08:58;;;;;;;;;;;;;;;20.31;20.47;98500.41;5010052;28;20024;-77
2022/05/23 10:11:50;;;;;;;;;;;;;;;20.34;20.29;98474.69;5005491;28;20487;-77
2022/05/23 10:14:16;;;;;;;;;;;;;;;20.53;19.74;98493.22;5010602;28;19975;-77
2022/05/23 10:16:46;;;;;;;;;;;;;;;20.36;19.45;98495.31;5008439;28;19925;-77
2022/05/23 10:19:23;;;;;;;;;;;;;;;20.42;20.06;98483.91;5020880;28;20296;-77
2022/05/23 10:22:03;;;;;;;;;;;;;;;21.38;19.32;98477.25;5006476;28;19948;-77
2022/05/23 10:24:30;;;;;;;;;;;;;;;21.91;18.65;98478.19;5012039;28;19925;-77
2022/05/23 10:26:59;;;;;;;;;;;;;;;21.03;19.33;98470.88;5000613;28;19925;-77
2022/05/23 10:29:33;;;;;;;;;;;;;;;20.63;20.03;98477.88;5006642;28;19932;-77
2022/05/23 10:32:03;;;;;;;;;;;;;;;20.79;19.96;98474.91;5001678;28;19932;-77
2022/05/23 10:34:35;;;;;;;;;;;;;;;21.14;19.11;98473.78;5021796;28;19976;-77
2022/05/23 10:37:05;;;;;;;;;;;;;;;20.98;18.87;98490.69;5001822;28;19936;-77
2022/05/23 10:42:22;;;;;;;;;;;;;;;21.68;18.75;98502.22;5004309;28;19929;-76
2022/05/23 10:45:11;;;;;;;;;;;;;;;21.28;18.66;98486.25;4998128;28;19925;-77
2022/05/23 10:47:53;;;;;;;;;;;;;;;20.68;19.20;98491.44;5017276;28;20055;-76
2022/05/23 10:50:21;;;;;;;;;;;;;;;19.87;19.91;98476.66;5001355;28;19925;-77
2022/05/23 10:52:53;;;;;;;;;;;;;;;19.74;20.36;98481.59;5002305;28;20389;-76
2022/05/23 10:55:23;;;;;;;;;;;;;;;19.80;20.92;98469.00;5004499;28;19971;-77
2022/05/23 10:57:57;;;;;;;;;;;;;;;20.80;19.74;98473.75;5004409;28;19925;-76
2022/05/23 11:00:27;;;;;;;;;;;;;;;21.66;18.83;98478.78;5004754;28;19925;-77
2022/05/23 11:03:00;;;;;;;;;;;;;;;22.61;18.03;98477.53;5004265;28;19932;-76
2022/05/23 11:05:28;;;;;;;;;;;;;;;22.98;17.33;98475.75;5005698;28;19929;-77
2022/05/23 11:08:15;;;;;;;;;;;;;;;22.29;17.63;98467.78;5022337;28;20067;-77
2022/05/23 11:10:43;;;;;;;;;;;;;;;22.21;17.74;98455.78;5009663;28;19925;-77
2022/05/23 11:13:17;;;;;;;;;;;;;;;22.05;17.68;98475.53;5007547;28;19929;-76
2022/05/23 11:15:52;;;;;;;;;;;;;;;22.37;18.00;98474.97;5003336;28;19987;-77
2022/05/23 11:18:26;;;;;;;;;;;;;;;22.57;17.77;98479.53;5002704;28;19932;-79
2022/05/23 11:20:55;;;;;;;;;;;;;;;22.36;17.55;98467.81;5018148;28;19948;-81
2022/05/23 11:23:27;;;;;;;;;;;;;;;22.57;17.33;98465.59;5004346;28;20385;-80
2022/05/23 11:25:55;;;;;;;;;;;;;;;22.75;17.05;98463.72;4995999;28;19925;-79
2022/05/23 11:33:58;;;;;;;;;;;;;;;24.77;15.46;98436.50;5006582;28;20082;-80
2022/05/23 11:36:34;;;;;;;;;;;;;;;24.57;15.20;98464.84;5021096;28;20285;-80
2022/05/23 11:39:01;;;;;;;;;;;;;;;23.29;16.18;98446.44;5022208;28;19970;-79
2022/05/23 11:41:29;;;;;;;;;;;;;;;22.62;17.10;98468.00;5002215;28;19933;-76
2022/05/23 11:48:33;;;;;;;;;;;;;;;22.93;17.18;98451.84;4584532;28;10000099;-71
2022/05/23 11:51:07;;;;;;;;;;;;;;;23.62;16.43;98458.47;4668416;28;10000632;-76
2022/05/23 11:53:37;;;;;;;;;;;;;;;24.02;15.61;98443.72;4990024;28;20381;-76
2022/05/23 11:56:07;;;;;;;;;;;;;;;23.50;16.02;98453.25;5014499;28;19929;-71
2022/05/23 11:58:42;;;;;;;;;;;;;;;24.09;15.71;98466.09;5000458;28;19960;-71
2022/05/23 12:01:30;;;;;;;;;;;;;;;25.09;15.00;98459.91;4997534;28;19925;-71
2022/05/23 12:04:16;;;;;;;;;;;;;;;25.00;15.06;98471.53;4998768;28;20011;-71
2022/05/23 12:06:46;;;;;;;;;;;;;;;24.93;14.87;98455.59;4997783;28;19932;-71
2022/05/23 12:09:30;;;;;;;;;;;;;;;23.94;15.76;98463.28;5013208;28;19925;-71
2022/05/23 12:12:14;;;;;;;;;;;;;;;24.22;15.27;98463.69;4978630;28;19983;-72
2022/05/23 12:14:54;;;;;;;;;;;;;;;24.36;15.48;98455.31;4987845;28;19924;-72
2022/05/23 12:17:25;;;;;;;;;;;;;;;25.24;14.48;98457.88;4996379;28;19991;-72
2022/05/23 12:19:53;;;;;;;;;;;;;;;25.67;14.30;98454.81;4986123;28;20393;-72
2022/05/23 12:22:29;;;;;;;;;;;;;;;25.18;14.40;98452.69;4992061;28;20433;-71
2022/05/23 12:24:56;;;;;;;;;;;;;;;24.69;15.03;98460.84;5015373;28;19932;-71
2022/05/23 12:27:24;;;;;;;;;;;;;;;23.99;15.55;98459.31;4999624;28;19932;-71
2022/05/23 12:30:10;;;;;;;;;;;;;;;23.82;15.63;98468.47;5011211;28;19952;-76
2022/05/23 12:32:39;;;;;;;;;;;;;;;24.90;14.96;98459.19;5002688;28;20737;-76
2022/05/23 12:35:06;;;;;;;;;;;;;;;25.68;14.12;98470.44;5005809;28;20362;-71
2022/05/23 12:37:34;;;;;;;;;;;;;;;26.38;13.61;98479.09;4997409;28;20023;-71
2022/05/23 12:40:06;;;;;;;;;;;;;;;27.17;13.27;98469.84;5002625;28;19948;-74
2022/05/23 12:42:43;;;;;;;;;;;;;;;27.32;13.27;98478.88;4983441;28;20028;-73
2022/05/23 12:45:29;;;;;;;;;;;;;;;27.13;12.78;98438.25;4996273;28;19929;-78
2022/05/23 12:48:10;;;;;;;;;;;;;;;25.51;13.49;98457.31;5006179;28;19926;-77
2022/05/23 12:50:44;;;;;;;;;;;;;;;25.35;13.45;98448.19;5004981;28;19929;-78
2022/05/23 12:53:23;;;;;;;;;;;;;;;25.94;13.07;98471.03;5005875;28;20368;-77
2022/05/23 12:55:55;;;;;;;;;;;;;;;26.14;12.98;98454.47;5008792;28;19951;-78
2022/05/23 12:58:28;;;;;;;;;;;;;;;26.51;13.09;98454.94;5011031;28;19979;-77
2022/05/23 13:00:55;;;;;;;;;;;;;;;27.85;12.27;98444.84;4999186;28;19964;-77
2022/05/23 13:03:26;;;;;;;;;;;;;;;28.40;11.43;98444.72;5009507;28;20653;-77
2022/05/23 13:05:56;;;;;;;;;;;;;;;28.43;11.47;98449.50;5009994;28;20464;-77
2022/05/23 13:08:27;;;;;;;;;;;;;;;27.29;11.67;98448.06;5011605;28;19936;-77
2022/05/23 13:10:56;;;;;;;;;;;;;;;27.07;12.05;98445.50;5010014;28;19925;-78
2022/05/23 13:13:28;;;;;;;;;;;;;;;27.45;11.93;98442.63;5007367;28;19961;-78
2022/05/23 13:15:54;;;;;;;;;;;;;;;26.87;12.01;98448.97;5005416;28;19982;-77
2022/05/23 13:24:04;;;;;;;;;;;;;;;27.46;11.69;98434.97;4989131;28;19933;-77
2022/05/23 13:26:30;;;;;;;;;;;;;;;27.01;11.77;98453.63;5004776;28;19932;-77
2022/05/23 13:28:56;;;;;;;;;;;;;;;26.77;11.69;98435.84;4984209;28;19930;-73
2022/05/23 13:31:24;;;;;;;;;;;;;;;26.81;12.05;98428.19;5002413;28;19931;-73
2022/05/23 13:33:51;;;;;;;;;;;;;;;26.66;11.96;98440.78;5008229;28;19929;-73
2022/05/23 13:36:18;;;;;;;;;;;;;;;26.05;12.31;98451.34;5008526;28;20321;-73
2022/05/23 13:38:57;;;;;;;;;;;;;;;25.91;12.64;98446.66;5004628;28;20360;-73
2022/05/23 13:41:25;;;;;;;;;;;;;;;25.58;12.83;98432.13;5005718;28;19925;-73
2022/05/23 13:43:51;;;;;;;;;;;;;;;25.51;13.05;98454.53;5002897;28;20417;-73
2022/05/23 13:46:20;;;;;;;;;;;;;;;25.55;12.56;98430.16;5004446;28;19956;-73
2022/05/23 13:48:48;;;;;;;;;;;;;;;25.41;12.57;98447.75;5003836;28;19925;-73
2022/05/23 13:51:18;;;;;;;;;;;;;;;23.98;13.41;98442.94;5003530;28;19930;-73
2022/05/23 13:53:48;;;;;;;;;;;;;;;23.33;13.84;98430.53;4999931;28;19933;-73
2022/05/23 13:56:14;;;;;;;;;;;;;;;24.13;13.17;98416.66;5000015;28;19936;-77
2022/05/23 13:58:45;;;;;;;;;;;;;;;25.09;12.38;98435.56;5009560;28;19933;-76
2022/05/23 14:01:19;;;;;;;;;;;;;;;25.85;12.13;98431.53;4997478;28;20031;-76
2022/05/23 14:03:46;;;;;;;;;;;;;;;26.30;12.01;98437.16;5007580;28;19932;-76
2022/05/23 14:06:13;;;;;;;;;;;;;;;26.64;11.90;98432.78;5005626;28;20424;-76
2022/05/23 14:08:40;;;;;;;;;;;;;;;27.32;11.28;98438.78;5022770;28;20281;-76
2022/05/23 14:11:09;;;;;;;;;;;;;;;27.20;10.92;98425.31;5004311;28;19925;-76
2022/05/23 14:13:35;;;;;;;;;;;;;;;26.64;10.69;98429.22;5004039;28;20400;-76